Pandora, Texas
Current Conditions -  °F | °C
As of 1:55 AM on Wednesday 22 Oct 2014 (Local Time) from KT20 Reporting Station
Clear Clear  
Wind Chill: 64°   Ceiling: Unl
Heat Index: 64°   Visibility: 10mi
Dew Point: 54°   Wind: 3mph
Humidity: 68%   Direction: 60°ENE
Pressure: 30.03"   Gusts: NA
Location:  29.25°N, 97.84°W
Report Text: KT20 220655Z AUTO 06003KT 10SM CLR 18/12 A3003 RMK AO2 T01800120
Loading
Personal Weather Stations






























Interactive Weather Map
Tropical Storm Tracking
New forecast layout! Learn more

10-Day Weather Forecast

Advertisements
Track Severe Weather on mobile